Time;durP1;ratioP1;P1;durP2;ratioP2;P2;SDS_P1;SDS_P2;PMS_P1;PMS_P2;Temp;Humidity;BMP_temperature;BMP_pressure;BME280_temperature;BME280_humidity;BME280_pressure;Samples;Min_cycle;Max_cycle;Signal;HPM_P1;HPM_P2
2021/08/25 00:01:41;;;;;;;16.67;7.95;;;17.60;66.90;;;;;;6251605;23;20004;-75
2021/08/25 00:04:08;;;;;;;16.88;7.00;;;17.60;66.40;;;;;;6224581;23;20004;-74
2021/08/25 00:06:34;;;;;;;23.55;9.27;;;17.60;67.00;;;;;;6251356;23;20516;-75
2021/08/25 00:09:00;;;;;;;20.25;8.77;;;17.50;67.10;;;;;;6251496;23;20010;-74
2021/08/25 00:11:26;;;;;;;25.50;8.48;;;17.50;67.50;;;;;;6251399;23;20039;-74
2021/08/25 00:13:52;;;;;;;19.05;7.15;;;17.50;67.00;;;;;;6251581;23;20230;-74
2021/08/25 00:16:18;;;;;;;22.52;8.13;;;17.50;67.20;;;;;;6251642;23;20000;-75
2021/08/25 00:18:44;;;;;;;19.88;8.63;;;17.40;66.90;;;;;;6224319;23;20301;-75
2021/08/25 00:21:10;;;;;;;19.20;8.27;;;17.40;67.10;;;;;;6251265;23;20007;-75
2021/08/25 00:23:36;;;;;;;19.77;8.00;;;17.40;66.40;;;;;;6251303;23;20435;-75
2021/08/25 00:26:02;;;;;;;20.42;7.78;;;17.30;66.10;;;;;;6224216;23;20067;-75
2021/08/25 00:28:28;;;;;;;17.95;7.43;;;17.30;67.90;;;;;;6251185;23;20020;-74
2021/08/25 00:30:54;;;;;;;23.83;9.85;;;17.30;67.00;;;;;;6224300;23;20008;-75
2021/08/25 00:33:20;;;;;;;23.45;8.75;;;17.30;67.80;;;;;;6251263;23;19996;-74
2021/08/25 00:35:46;;;;;;;21.65;8.25;;;17.30;67.90;;;;;;6250842;23;20027;-74
2021/08/25 00:38:12;;;;;;;18.83;8.55;;;17.30;67.90;;;;;;6250864;23;20087;-75
2021/08/25 00:40:38;;;;;;;21.83;9.10;;;17.20;69.40;;;;;;6250988;23;20020;-74
2021/08/25 00:43:08;;;;;;;18.38;7.55;;;17.20;68.10;;;;;;6251142;23;20004;-74
2021/08/25 00:45:45;;;;;;;18.20;8.60;;;17.20;68.50;;;;;;6251087;23;20008;-75
2021/08/25 00:48:14;;;;;;;20.40;8.32;;;17.20;68.90;;;;;;6251192;23;20500;-74
2021/08/25 00:50:40;;;;;;;20.05;9.00;;;17.20;68.70;;;;;;6223884;23;20379;-74
2021/08/25 00:53:07;;;;;;;27.42;10.02;;;17.10;69.30;;;;;;6251053;23;20008;-74
2021/08/25 00:55:37;;;;;;;20.50;9.18;;;17.10;70.20;;;;;;6224121;23;20008;-74
2021/08/25 00:58:05;;;;;;;22.42;9.27;;;17.10;69.30;;;;;;6251071;23;20080;-74
2021/08/25 01:00:31;;;;;;;21.67;9.77;;;17.10;69.60;;;;;;6251227;23;20067;-74
2021/08/25 01:03:27;;;;;;;19.98;9.63;;;17.00;69.80;;;;;;6251102;23;20000;-74
2021/08/25 01:05:56;;;;;;;27.98;8.88;;;17.00;70.10;;;;;;6223877;23;20012;-74
2021/08/25 01:08:23;;;;;;;25.50;9.23;;;17.00;69.60;;;;;;6250847;23;20004;-74
2021/08/25 01:10:49;;;;;;;17.02;8.27;;;17.00;69.80;;;;;;6250936;23;20439;-74
2021/08/25 01:13:15;;;;;;;18.20;8.35;;;17.00;69.60;;;;;;6251033;23;20070;-74
2021/08/25 01:15:42;;;;;;;24.58;9.23;;;16.90;69.30;;;;;;6251045;23;20004;-74
2021/08/25 01:18:17;;;;;;;20.33;9.20;;;16.90;69.50;;;;;;6250805;23;20091;-74
2021/08/25 01:20:46;;;;;;;20.38;9.43;;;16.90;70.10;;;;;;6250807;23;20035;-74
2021/08/25 01:23:22;;;;;;;20.27;9.13;;;16.90;69.70;;;;;;6250545;23;20024;-75
2021/08/25 01:25:55;;;;;;;18.30;9.70;;;16.90;70.00;;;;;;6251092;23;20065;-74
2021/08/25 01:28:24;;;;;;;19.15;9.25;;;16.90;69.70;;;;;;6251158;23;19996;-75
2021/08/25 01:30:50;;;;;;;22.02;8.32;;;16.80;69.50;;;;;;6250948;23;20010;-74
2021/08/25 01:33:18;;;;;;;23.83;9.27;;;16.80;68.80;;;;;;6251077;23;20411;-74
2021/08/25 01:35:44;;;;;;;16.65;8.57;;;16.80;68.70;;;;;;6250943;23;20023;-75
2021/08/25 01:38:28;;;;;;;20.15;9.07;;;16.80;70.30;;;;;;6250925;23;19996;-74
2021/08/25 01:40:54;;;;;;;19.70;9.45;;;16.80;69.50;;;;;;6250736;23;20020;-75
2021/08/25 01:43:24;;;;;;;18.73;8.95;;;16.70;70.20;;;;;;6251111;23;20050;-75
2021/08/25 01:45:52;;;;;;;17.77;9.10;;;16.70;69.50;;;;;;6250743;23;20047;-74
2021/08/25 01:48:23;;;;;;;25.15;9.98;;;16.70;69.90;;;;;;6252312;23;20004;-75
2021/08/25 01:50:50;;;;;;;18.75;8.88;;;16.70;70.00;;;;;;6252129;23;20450;-74
2021/08/25 01:53:20;;;;;;;21.73;9.70;;;16.70;69.50;;;;;;6252759;23;20000;-74
2021/08/25 01:55:52;;;;;;;23.25;8.77;;;16.70;70.50;;;;;;6252568;23;20028;-74
2021/08/25 01:58:18;;;;;;;22.88;10.25;;;16.60;69.80;;;;;;6252828;23;20000;-74
2021/08/25 02:00:45;;;;;;;19.00;9.63;;;16.60;70.20;;;;;;6252805;23;20000;-74
2021/08/25 02:03:17;;;;;;;22.80;9.63;;;16.60;70.80;;;;;;6252897;23;20489;-74
2021/08/25 02:05:43;;;;;;;23.15;9.73;;;16.60;70.60;;;;;;6250730;23;20451;-74
2021/08/25 02:08:11;;;;;;;20.80;10.48;;;16.60;71.00;;;;;;6252618;23;20000;-74
2021/08/25 02:10:43;;;;;;;23.98;9.38;;;16.50;71.00;;;;;;6225500;23;20402;-74
2021/08/25 02:13:18;;;;;;;19.80;8.80;;;16.50;69.70;;;;;;6252824;23;19997;-74
2021/08/25 02:15:47;;;;;;;22.85;9.05;;;16.50;69.70;;;;;;6252792;23;20003;-74
2021/08/25 02:18:19;;;;;;;16.65;9.15;;;16.50;69.70;;;;;;6252465;23;20000;-74
2021/08/25 02:20:45;;;;;;;19.58;9.27;;;16.50;70.20;;;;;;6252444;23;20018;-74
2021/08/25 02:23:17;;;;;;;22.55;10.18;;;16.50;70.20;;;;;;6252652;23;20000;-75
2021/08/25 02:25:48;;;;;;;18.23;9.95;;;16.40;70.20;;;;;;6252700;23;20335;-75
2021/08/25 02:28:20;;;;;;;19.23;8.85;;;16.40;70.90;;;;;;6252574;23;20431;-74
2021/08/25 02:30:49;;;;;;;;;;;16.40;71.20;;;;;;6252979;23;20004;-75
2021/08/25 02:33:19;;;;;;;20.55;9.30;;;16.30;70.70;;;;;;6252494;23;19986;-74
2021/08/25 02:35:56;;;;;;;18.73;8.85;;;16.40;69.90;;;;;;6252416;23;20003;-74
2021/08/25 02:38:33;;;;;;;17.48;8.90;;;16.30;70.40;;;;;;6252411;23;20011;-74
2021/08/25 02:41:00;;;;;;;15.02;8.63;;;16.30;69.90;;;;;;6252233;23;20027;-74
2021/08/25 02:43:29;;;;;;;19.58;9.40;;;16.30;70.00;;;;;;6252509;23;20431;-74
2021/08/25 02:46:02;;;;;;;20.30;9.98;;;16.20;70.10;;;;;;6252287;23;20000;-74
2021/08/25 02:48:28;;;;;;;21.08;10.20;;;16.30;70.00;;;;;;6252261;23;20000;-74
2021/08/25 02:50:54;;;;;;;18.23;8.70;;;16.20;70.80;;;;;;6252030;23;20004;-74
2021/08/25 02:53:21;;;;;;;17.85;8.88;;;16.20;70.50;;;;;;6225321;23;20056;-75
2021/08/25 02:55:50;;;;;;;17.70;9.85;;;16.20;70.60;;;;;;6252283;23;20003;-75
2021/08/25 02:58:18;;;;;;;18.42;9.68;;;16.20;69.40;;;;;;6224239;23;20039;-74
2021/08/25 03:00:44;;;;;;;13.57;8.40;;;16.20;70.20;;;;;;6252337;23;20007;-74
2021/08/25 03:03:11;;;;;;;22.10;9.73;;;16.10;69.90;;;;;;6225706;23;20435;-75
2021/08/25 03:05:37;;;;;;;19.50;10.65;;;16.10;69.40;;;;;;6225003;23;20008;-74
2021/08/25 03:08:03;;;;;;;17.27;9.52;;;16.10;70.30;;;;;;6252030;23;20050;-75
2021/08/25 03:10:29;;;;;;;12.85;7.97;;;16.10;69.90;;;;;;6252209;23;20016;-75
2021/08/25 03:12:55;;;;;;;16.83;8.10;;;16.10;69.00;;;;;;6252371;23;20069;-74
2021/08/25 03:15:21;;;;;;;17.70;8.10;;;16.00;68.80;;;;;;6252096;23;20002;-75
2021/08/25 03:17:47;;;;;;;22.90;10.55;;;16.00;69.20;;;;;;6252108;23;20052;-74
2021/08/25 03:20:13;;;;;;;18.15;9.07;;;16.00;70.30;;;;;;6251803;23;20004;-75
2021/08/25 03:22:39;;;;;;;15.20;8.75;;;16.00;70.10;;;;;;6252147;23;20336;-74
2021/08/25 03:25:08;;;;;;;18.55;8.93;;;15.90;69.40;;;;;;6251988;23;20335;-75
2021/08/25 03:27:34;;;;;;;17.77;9.23;;;15.90;70.00;;;;;;6251994;23;20025;-74
2021/08/25 03:30:00;;;;;;;17.23;8.55;;;15.90;69.80;;;;;;6251927;23;20427;-74
2021/08/25 03:32:26;;;;;;;17.25;8.75;;;15.90;69.80;;;;;;6252015;23;20057;-75
2021/08/25 03:34:52;;;;;;;14.77;8.57;;;15.90;69.10;;;;;;6251631;23;19992;-75
2021/08/25 03:37:18;;;;;;;18.17;9.60;;;15.80;69.20;;;;;;6251742;23;20438;-75
2021/08/25 03:39:44;;;;;;;16.20;9.23;;;15.80;69.20;;;;;;6224292;23;20097;-75
2021/08/25 03:42:10;;;;;;;16.13;8.63;;;15.80;69.30;;;;;;6251786;23;19996;-74
2021/08/25 03:44:37;;;;;;;17.88;9.98;;;15.80;69.80;;;;;;6251965;23;20000;-75
2021/08/25 03:47:04;;;;;;;16.83;9.00;;;15.70;69.80;;;;;;6251482;23;20054;-75
2021/08/25 03:49:30;;;;;;;16.48;9.27;;;15.80;70.30;;;;;;6251473;23;20003;-75
2021/08/25 03:51:56;;;;;;;16.42;9.90;;;15.70;70.10;;;;;;6251705;23;20005;-75
2021/08/25 03:54:22;;;;;;;19.30;10.23;;;15.70;70.20;;;;;;6251596;23;20000;-74
2021/08/25 03:56:48;;;;;;;20.00;9.20;;;15.70;70.00;;;;;;6224688;23;20008;-74
2021/08/25 03:59:14;;;;;;;14.63;8.70;;;15.70;69.40;;;;;;6224539;23;20142;-74
2021/08/25 04:01:41;;;;;;;13.68;7.93;;;15.70;69.10;;;;;;6251715;23;20007;-74
2021/08/25 04:04:08;;;;;;;14.85;7.57;;;15.60;68.40;;;;;;6251745;23;20008;-74
2021/08/25 04:06:38;;;;;;;12.40;8.02;;;15.60;68.20;;;;;;6251307;23;20716;-75
2021/08/25 04:09:05;;;;;;;16.27;8.75;;;15.60;68.90;;;;;;6251510;23;20001;-74
2021/08/25 04:11:32;;;;;;;14.38;7.82;;;15.60;68.50;;;;;;6251046;23;20049;-74
2021/08/25 04:13:58;;;;;;;16.95;8.95;;;15.60;68.50;;;;;;6251660;23;19996;-74
2021/08/25 04:16:24;;;;;;;15.23;7.95;;;15.50;68.70;;;;;;6251370;23;20055;-75
2021/08/25 04:18:50;;;;;;;15.43;8.25;;;15.50;68.60;;;;;;6251664;23;19988;-74
2021/08/25 04:21:16;;;;;;;18.15;8.68;;;15.50;68.30;;;;;;6251274;23;20347;-74
2021/08/25 04:23:42;;;;;;;19.20;8.82;;;15.50;68.10;;;;;;6251272;23;20320;-74
2021/08/25 04:26:09;;;;;;;16.15;8.48;;;15.40;68.80;;;;;;6251347;23;20073;-74
2021/08/25 04:28:35;;;;;;;15.80;8.30;;;15.40;68.30;;;;;;6251612;23;20439;-75
2021/08/25 04:31:01;;;;;;;15.65;7.63;;;15.40;68.20;;;;;;6224315;23;20014;-74
2021/08/25 04:33:27;;;;;;;14.68;6.97;;;15.40;67.80;;;;;;6251412;23;20331;-74
2021/08/25 04:35:52;;;;;;;15.05;7.13;;;15.30;67.40;;;;;;6250966;23;20000;-74
2021/08/25 04:38:18;;;;;;;15.20;7.20;;;15.30;67.30;;;;;;6251175;23;20000;-75
2021/08/25 04:40:44;;;;;;;17.23;9.32;;;15.30;67.30;;;;;;6250200;23;20071;-75
2021/08/25 04:43:10;;;;;;;15.32;8.15;;;15.30;69.40;;;;;;6250632;23;20147;-75
2021/08/25 04:45:39;;;;;;;17.17;8.10;;;15.20;68.10;;;;;;6250782;23;20000;-75
2021/08/25 04:48:06;;;;;;;17.13;7.75;;;15.20;67.90;;;;;;6250638;23;20000;-78
2021/08/25 04:50:32;;;;;;;15.68;8.05;;;15.20;67.70;;;;;;6250650;23;20007;-73
2021/08/25 04:52:58;;;;;;;14.65;7.35;;;15.20;67.10;;;;;;6250777;23;20003;-73
2021/08/25 04:55:24;;;;;;;16.83;7.50;;;15.20;66.90;;;;;;6250830;23;19996;-71
2021/08/25 04:57:50;;;;;;;13.57;6.78;;;15.10;67.00;;;;;;6250717;23;20018;-73
2021/08/25 05:00:16;;;;;;;12.27;6.97;;;15.10;66.90;;;;;;6223925;23;20004;-74
2021/08/25 05:02:41;;;;;;;17.95;7.85;;;15.10;66.90;;;;;;6250353;23;20339;-74
2021/08/25 05:05:08;;;;;;;16.27;7.93;;;15.10;67.00;;;;;;6250727;23;20012;-73
2021/08/25 05:07:33;;;;;;;17.13;8.48;;;15.00;66.90;;;;;;6250504;23;20015;-73
2021/08/25 05:09:59;;;;;;;14.50;8.50;;;15.00;66.50;;;;;;6250606;23;20000;-74
2021/08/25 05:12:25;;;;;;;16.23;7.30;;;15.00;66.40;;;;;;6250664;23;20431;-73
2021/08/25 05:14:51;;;;;;;14.43;7.72;;;15.00;66.70;;;;;;6250553;23;20075;-78
2021/08/25 05:17:17;;;;;;;14.27;7.30;;;14.90;66.70;;;;;;6250550;23;20423;-74
2021/08/25 05:19:42;;;;;;;14.05;7.88;;;14.90;66.50;;;;;;6250459;23;20032;-72
2021/08/25 05:22:09;;;;;;;15.35;7.40;;;15.00;67.00;;;;;;6251976;23;20000;-73
2021/08/25 05:24:36;;;;;;;18.17;7.97;;;14.90;67.20;;;;;;6252647;23;20364;-72
2021/08/25 05:27:03;;;;;;;15.05;7.55;;;14.90;67.10;;;;;;6225679;23;20054;-72
2021/08/25 05:29:29;;;;;;;14.77;8.05;;;14.90;67.60;;;;;;6252806;23;20019;-74
2021/08/25 05:31:54;;;;;;;15.85;8.35;;;14.90;67.30;;;;;;6226051;23;20331;-73
2021/08/25 05:34:20;;;;;;;13.27;8.13;;;14.90;67.50;;;;;;6252426;23;20000;-72
2021/08/25 05:36:46;;;;;;;16.38;8.38;;;14.80;67.60;;;;;;6252492;23;20443;-74
2021/08/25 05:39:12;;;;;;;14.73;8.32;;;14.80;67.60;;;;;;6252528;23;20000;-74
2021/08/25 05:41:38;;;;;;;18.25;8.23;;;14.80;67.80;;;;;;6252274;23;20012;-76
2021/08/25 05:44:04;;;;;;;17.00;9.02;;;14.90;68.00;;;;;;6225867;23;20390;-73
2021/08/25 05:46:32;;;;;;;16.55;8.30;;;14.80;67.70;;;;;;6252797;23;20068;-76
2021/08/25 05:48:59;;;;;;;14.60;8.38;;;14.90;67.60;;;;;;6252658;23;20335;-77
2021/08/25 05:51:25;;;;;;;13.90;7.47;;;14.90;67.60;;;;;;6252366;23;20015;-74
2021/08/25 05:53:52;;;;;;;14.60;8.15;;;14.90;67.90;;;;;;6251907;23;19996;-74
2021/08/25 05:56:19;;;;;;;19.40;9.48;;;14.80;67.80;;;;;;6252348;23;20000;-76
2021/08/25 05:58:45;;;;;;;17.85;8.55;;;14.90;68.90;;;;;;6252660;23;20003;-76
2021/08/25 06:01:15;;;;;;;15.07;8.20;;;14.90;68.30;;;;;;6252331;23;20131;-76
2021/08/25 06:03:41;;;;;;;14.02;8.55;;;14.90;68.20;;;;;;6225203;23;20004;-76
2021/08/25 06:06:07;;;;;;;14.18;7.60;;;14.90;67.80;;;;;;6252183;23;20074;-76
2021/08/25 06:08:33;;;;;;;14.52;8.30;;;14.90;67.50;;;;;;6252298;23;20335;-76
2021/08/25 06:10:59;;;;;;;19.23;9.43;;;14.90;69.10;;;;;;6252245;23;20000;-76
2021/08/25 06:13:25;;;;;;;17.77;9.38;;;14.90;69.80;;;;;;6223625;23;20000;-76
2021/08/25 06:15:51;;;;;;;19.13;9.57;;;14.90;69.80;;;;;;6252322;23;20004;-76
2021/08/25 06:18:17;;;;;;;19.63;9.10;;;14.90;69.40;;;;;;6252307;23;20003;-76
2021/08/25 06:20:42;;;;;;;18.75;9.35;;;14.90;69.00;;;;;;6252296;23;20008;-75
2021/08/25 06:23:08;;;;;;;18.10;10.38;;;15.00;69.90;;;;;;6252134;23;20358;-76
2021/08/25 06:25:34;;;;;;;15.23;9.05;;;15.00;70.10;;;;;;6251184;23;20075;-76
2021/08/25 06:28:01;;;;;;;22.92;9.35;;;15.00;69.50;;;;;;6251983;23;20002;-76
2021/08/25 06:30:27;;;;;;;20.42;10.15;;;15.00;70.10;;;;;;6252238;23;20071;-76
2021/08/25 06:32:53;;;;;;;21.38;10.75;;;15.10;71.10;;;;;;6251535;23;20001;-76
2021/08/25 06:35:20;;;;;;;20.20;11.75;;;15.10;71.30;;;;;;6251793;23;20313;-76
2021/08/25 06:37:46;;;;;;;19.65;9.55;;;15.10;71.80;;;;;;6252021;23;20386;-76
2021/08/25 06:40:13;;;;;;;23.67;10.63;;;15.20;71.30;;;;;;6224857;23;20047;-76
2021/08/25 06:42:39;;;;;;;19.85;11.07;;;15.10;71.00;;;;;;6252169;23;20004;-76
2021/08/25 06:45:06;;;;;;;25.02;12.02;;;15.20;71.90;;;;;;6251971;23;20079;-76
2021/08/25 06:47:32;;;;;;;17.33;9.65;;;15.20;72.40;;;;;;6251671;23;20004;-76
2021/08/25 06:49:58;;;;;;;21.45;10.13;;;15.30;72.40;;;;;;6251490;23;20004;-76
2021/08/25 06:52:24;;;;;;;18.10;10.60;;;15.30;72.00;;;;;;6251968;23;20710;-76
2021/08/25 06:54:50;;;;;;;16.38;10.27;;;15.40;72.80;;;;;;6251588;23;20071;-75
2021/08/25 06:57:16;;;;;;;19.05;10.20;;;15.30;72.00;;;;;;6251734;23;19996;-75
2021/08/25 06:59:41;;;;;;;21.30;10.52;;;15.40;72.20;;;;;;6252013;23;19996;-75
2021/08/25 07:02:07;;;;;;;21.45;11.45;;;15.50;72.30;;;;;;6251744;23;20000;-77
2021/08/25 07:04:33;;;;;;;20.98;11.43;;;15.50;72.90;;;;;;6251593;23;20071;-75
2021/08/25 07:06:59;;;;;;;26.35;10.88;;;15.60;72.70;;;;;;6251734;23;20027;-75
2021/08/25 07:09:25;;;;;;;21.08;11.48;;;15.70;74.10;;;;;;6224746;23;20004;-75
2021/08/25 07:11:50;;;;;;;19.33;11.02;;;16.00;74.30;;;;;;6251809;23;20004;-75
2021/08/25 07:14:16;;;;;;;22.05;11.20;;;16.30;75.30;;;;;;6251738;23;20004;-76
2021/08/25 07:16:42;;;;;;;19.60;10.05;;;16.60;76.40;;;;;;6251676;23;20000;-76
2021/08/25 07:19:08;;;;;;;19.83;10.25;;;17.00;77.60;;;;;;6251471;23;19996;-75
2021/08/25 07:21:34;;;;;;;21.77;9.30;;;17.40;77.30;;;;;;6251709;23;20004;-75
2021/08/25 07:24:00;;;;;;;14.52;8.75;;;17.80;77.30;;;;;;6251403;23;20004;-75
2021/08/25 07:26:27;;;;;;;17.05;8.88;;;18.10;76.90;;;;;;6251566;23;20011;-75
2021/08/25 07:28:53;;;;;;;18.10;9.48;;;18.50;75.70;;;;;;6251687;23;20031;-75
2021/08/25 07:31:19;;;;;;;14.68;8.10;;;18.80;74.80;;;;;;6251434;23;20000;-75
2021/08/25 07:33:45;;;;;;;15.00;7.25;;;19.10;75.80;;;;;;6251463;23;20370;-75
2021/08/25 07:36:11;;;;;;;18.35;8.80;;;19.30;76.00;;;;;;6250962;23;20093;-75
2021/08/25 07:38:37;;;;;;;17.77;7.88;;;19.60;73.30;;;;;;6251406;23;20000;-75
2021/08/25 07:41:03;;;;;;;17.25;8.82;;;19.80;73.20;;;;;;6251237;23;20043;-75
2021/08/25 07:43:29;;;;;;;16.38;8.32;;;20.00;73.00;;;;;;6251320;23;20008;-75
2021/08/25 07:45:55;;;;;;;14.93;8.05;;;20.10;71.60;;;;;;6251349;23;20008;-75
2021/08/25 07:48:21;;;;;;;17.98;7.72;;;20.30;71.40;;;;;;6251306;23;20050;-75
2021/08/25 07:50:49;;;;;;;19.52;9.07;;;20.50;71.40;;;;;;6250979;23;20000;-75
2021/08/25 07:53:16;;;;;;;13.23;7.90;;;20.60;70.30;;;;;;6251059;23;20056;-75
2021/08/25 07:55:41;;;;;;;16.55;8.35;;;20.70;70.50;;;;;;6251321;23;20067;-75
2021/08/25 07:58:07;;;;;;;13.73;8.95;;;20.90;69.50;;;;;;6251276;23;19996;-75
2021/08/25 08:00:33;;;;;;;18.73;9.00;;;21.00;70.00;;;;;;6251202;23;20014;-75
2021/08/25 08:02:59;;;;;;;17.30;8.15;;;21.10;68.20;;;;;;6251489;23;20023;-75
2021/08/25 08:05:25;;;;;;;14.75;7.90;;;21.30;67.70;;;;;;6250889;23;20034;-75
2021/08/25 08:07:51;;;;;;;15.45;8.18;;;21.40;66.40;;;;;;6250799;23;20008;-75
2021/08/25 08:10:16;;;;;;;16.40;7.88;;;21.50;67.70;;;;;;6224091;23;20015;-75
2021/08/25 08:12:42;;;;;;;14.75;8.70;;;21.70;67.20;;;;;;6251241;23;19992;-75
2021/08/25 08:15:13;;;;;;;15.63;8.57;;;21.80;66.20;;;;;;6251065;23;20059;-75
2021/08/25 08:17:42;;;;;;;19.65;9.05;;;22.00;67.80;;;;;;6250893;23;20029;-75
2021/08/25 08:20:09;;;;;;;20.02;8.30;;;22.40;67.30;;;;;;6250831;23;20327;-75
2021/08/25 08:22:35;;;;;;;15.57;8.00;;;22.70;67.90;;;;;;6250968;23;20439;-75
2021/08/25 08:25:00;;;;;;;17.60;9.07;;;23.00;67.10;;;;;;6251044;23;20004;-75
2021/08/25 08:27:26;;;;;;;16.35;8.27;;;23.50;62.60;;;;;;6250894;23;20051;-75
2021/08/25 08:29:52;;;;;;;10.32;6.90;;;23.70;62.60;;;;;;6251074;23;20000;-74
2021/08/25 08:32:18;;;;;;;12.98;6.93;;;24.00;65.50;;;;;;6250874;23;20450;-75
2021/08/25 08:34:43;;;;;;;18.13;7.65;;;24.30;65.60;;;;;;6250326;23;20427;-75
2021/08/25 08:37:09;;;;;;;13.05;6.93;;;24.60;66.60;;;;;;6251160;23;20005;-75
2021/08/25 08:39:35;;;;;;;14.20;7.03;;;25.00;67.90;;;;;;6250629;23;20027;-75
2021/08/25 08:42:01;;;;;;;12.80;6.68;;;25.30;68.50;;;;;;6250932;23;20374;-75
2021/08/25 08:44:27;;;;;;;15.73;7.43;;;25.70;67.90;;;;;;6250810;23;20003;-74
2021/08/25 08:46:53;;;;;;;16.15;7.85;;;26.10;67.30;;;;;;6251021;23;20083;-75
2021/08/25 08:49:19;;;;;;;11.77;7.07;;;26.40;66.20;;;;;;6250663;23;20075;-75
2021/08/25 08:51:45;;;;;;;11.30;6.85;;;26.80;64.60;;;;;;6251000;23;20000;-75
2021/08/25 08:54:11;;;;;;;14.05;7.53;;;27.10;65.10;;;;;;6223437;23;20054;-75
2021/08/25 08:56:37;;;;;;;13.85;7.07;;;27.40;63.10;;;;;;6250564;23;20003;-75
2021/08/25 08:59:04;;;;;;;15.25;7.30;;;27.70;62.20;;;;;;6250882;23;20000;-75
2021/08/25 09:01:30;;;;;;;12.85;6.13;;;27.90;60.60;;;;;;6250795;23;20435;-75
2021/08/25 09:03:57;;;;;;;12.85;7.45;;;28.20;61.80;;;;;;6250616;23;20008;-75
2021/08/25 09:06:45;;;;;;;13.10;6.85;;;28.40;61.20;;;;;;6250484;23;20004;-75
2021/08/25 09:09:11;;;;;;;13.23;8.02;;;28.60;60.40;;;;;;6223464;23;20005;-75
2021/08/25 09:11:55;;;;;;;11.60;6.75;;;28.80;60.60;;;;;;6250505;23;20437;-75
2021/08/25 09:14:25;;;;;;;13.95;6.88;;;29.10;60.90;;;;;;6251014;23;20000;-74
2021/08/25 09:16:51;;;;;;;12.02;6.50;;;29.30;56.00;;;;;;6250677;23;20075;-75
2021/08/25 09:19:18;;;;;;;17.90;7.93;;;29.50;56.90;;;;;;6250889;23;20050;-75
2021/08/25 09:21:49;;;;;;;13.70;6.53;;;29.70;55.30;;;;;;6250608;23;20435;-74
2021/08/25 09:24:15;;;;;;;15.77;7.72;;;29.80;59.10;;;;;;6250819;23;20424;-75
2021/08/25 09:27:12;;;;;;;13.00;6.65;;;30.00;58.10;;;;;;6250827;23;20004;-75
2021/08/25 09:29:40;;;;;;;11.23;6.68;;;30.30;58.30;;;;;;6219787;23;20339;-75
2021/08/25 09:32:22;;;;;;;11.35;6.40;;;30.50;60.00;;;;;;6250767;23;20007;-75
2021/08/25 09:35:08;;;;;;;10.65;6.40;;;30.80;59.40;;;;;;6250609;23;20000;-75
2021/08/25 09:37:34;;;;;;;11.23;6.30;;;31.10;58.70;;;;;;6249764;23;19996;-75
2021/08/25 09:40:03;;;;;;;12.23;7.07;;;31.40;60.20;;;;;;6250353;23;20015;-75
2021/08/25 09:42:44;;;;;;;12.40;6.55;;;31.70;58.00;;;;;;6250744;23;20003;-75
2021/08/25 09:45:13;;;;;;;10.88;6.70;;;31.90;56.00;;;;;;6250689;23;20450;-75
2021/08/25 09:47:56;;;;;;;11.85;6.03;;;32.10;54.90;;;;;;6250338;23;19996;-75
2021/08/25 09:50:24;;;;;;;11.57;6.25;;;32.20;56.00;;;;;;6250171;23;20004;-75
2021/08/25 09:52:50;;;;;;;10.07;6.05;;;32.40;56.20;;;;;;6250294;23;20079;-75
2021/08/25 09:55:31;;;;;;;10.48;6.07;;;32.60;57.80;;;;;;6250680;23;20443;-75
2021/08/25 09:57:58;;;;;;;9.88;5.47;;;32.80;53.10;;;;;;6223564;23;20027;-75
2021/08/25 10:00:24;;;;;;;9.73;5.82;;;32.90;54.70;;;;;;6250489;23;20335;-77
2021/08/25 10:02:50;;;;;;;10.63;6.57;;;33.00;51.10;;;;;;6250269;23;20011;-76
2021/08/25 10:05:27;;;;;;;10.73;6.25;;;33.10;50.80;;;;;;6250342;23;20004;-75
2021/08/25 10:07:53;;;;;;;12.50;6.43;;;33.30;48.50;;;;;;6250034;23;20335;-76
2021/08/25 10:10:20;;;;;;;12.40;5.93;;;33.40;48.70;;;;;;6252470;23;20015;-77
2021/08/25 10:12:51;;;;;;;12.40;6.32;;;33.40;46.90;;;;;;6225303;23;20004;-75
2021/08/25 10:15:47;;;;;;;8.70;6.05;;;33.40;43.50;;;;;;6252324;23;20000;-75
2021/08/25 10:18:30;;;;;;;12.13;5.65;;;33.30;46.10;;;;;;6220840;23;20018;-75
2021/08/25 10:20:58;;;;;;;8.45;5.05;;;33.20;48.60;;;;;;6252223;23;20004;-75
2021/08/25 10:23:58;;;;;;;11.52;6.38;;;33.30;49.10;;;;;;6251877;23;20027;-76
2021/08/25 10:26:28;;;;;;;11.05;5.68;;;33.40;47.60;;;;;;6252215;23;20004;-75
2021/08/25 10:29:00;;;;;;;8.48;5.47;;;33.50;47.70;;;;;;6225078;23;20343;-76
2021/08/25 10:31:46;;;;;;;9.55;4.97;;;33.60;49.60;;;;;;6252130;23;20008;-77
2021/08/25 10:34:13;;;;;;;10.15;5.82;;;33.80;48.30;;;;;;6224741;23;20007;-77
2021/08/25 10:36:39;;;;;;;9.52;5.40;;;33.80;48.10;;;;;;6251408;23;20003;-76
2021/08/25 10:39:31;;;;;;;9.68;5.95;;;33.90;45.20;;;;;;6251675;23;20004;-77
2021/08/25 10:41:57;;;;;;;10.55;5.72;;;34.00;49.00;;;;;;6251948;23;20071;-77
2021/08/25 10:44:41;;;;;;;11.52;6.30;;;34.10;49.40;;;;;;6251981;23;20000;-77
2021/08/25 10:47:09;;;;;;;8.90;5.43;;;34.30;46.70;;;;;;6251954;23;20000;-77
2021/08/25 10:49:37;;;;;;;11.82;5.85;;;34.40;46.10;;;;;;6224602;23;20351;-77
2021/08/25 10:52:29;;;;;;;11.07;6.05;;;34.50;47.50;;;;;;6251359;23;20138;-76
2021/08/25 10:54:56;;;;;;;9.63;5.32;;;34.50;44.40;;;;;;6251765;23;20067;-76
2021/08/25 10:57:23;;;;;;;11.95;5.43;;;34.60;43.50;;;;;;6251753;23;20003;-75
2021/08/25 10:59:50;;;;;;;8.80;5.38;;;34.50;45.10;;;;;;6251829;23;20000;-76
2021/08/25 11:02:16;;;;;;;8.55;5.40;;;34.50;46.00;;;;;;6251697;23;20007;-75
2021/08/25 11:04:42;;;;;;;9.75;5.63;;;34.60;45.40;;;;;;6251517;23;20020;-76
2021/08/25 11:07:10;;;;;;;10.05;5.15;;;34.60;43.40;;;;;;6247448;23;20004;-76
2021/08/25 11:09:41;;;;;;;9.45;5.53;;;34.60;45.40;;;;;;6250690;23;20008;-76
2021/08/25 11:12:09;;;;;;;8.32;5.50;;;34.70;44.30;;;;;;6251497;23;20004;-75
2021/08/25 11:14:49;;;;;;;7.55;4.68;;;34.70;43.90;;;;;;6251340;23;19996;-76
2021/08/25 11:17:17;;;;;;;9.48;5.05;;;34.70;46.00;;;;;;6251794;23;20000;-76
2021/08/25 11:19:46;;;;;;;8.20;5.18;;;34.80;44.50;;;;;;6250098;23;20446;-76
2021/08/25 11:22:16;;;;;;;9.75;5.10;;;34.90;42.30;;;;;;6251401;23;20026;-75
2021/08/25 11:24:46;;;;;;;10.23;5.40;;;34.90;43.40;;;;;;6251243;23;20007;-76
2021/08/25 11:27:24;;;;;;;9.35;5.07;;;34.90;42.90;;;;;;6251514;23;20004;-75
2021/08/25 11:30:17;;;;;;;10.82;5.65;;;34.90;42.30;;;;;;6251629;23;20024;-75
2021/08/25 11:32:43;;;;;;;9.63;4.72;;;34.90;44.30;;;;;;6251438;23;20344;-76
2021/08/25 11:35:09;;;;;;;9.65;4.90;;;35.00;42.00;;;;;;6251186;23;20000;-76
2021/08/25 11:37:35;;;;;;;8.20;4.63;;;35.00;43.70;;;;;;6250426;23;20332;-76
2021/08/25 11:40:05;;;;;;;8.68;5.00;;;35.10;43.10;;;;;;6251077;23;20012;-76
2021/08/25 11:42:36;;;;;;;9.50;5.00;;;35.10;43.30;;;;;;6251456;23;20002;-76
2021/08/25 11:45:28;;;;;;;7.43;4.63;;;35.10;43.20;;;;;;6251470;23;19996;-76
2021/08/25 11:47:56;;;;;;;8.50;5.28;;;35.10;43.00;;;;;;6224269;23;20439;-76
2021/08/25 11:50:29;;;;;;;9.00;4.80;;;35.20;40.50;;;;;;6251269;23;20000;-80
2021/08/25 11:52:58;;;;;;;11.25;5.22;;;35.10;41.30;;;;;;6224165;23;20450;-77
2021/08/25 11:55:24;;;;;;;9.88;5.32;;;35.00;40.80;;;;;;6224519;23;20082;-76
2021/08/25 11:57:53;;;;;;;8.68;4.75;;;34.90;41.20;;;;;;6224491;23;20000;-77
2021/08/25 12:00:23;;;;;;;8.73;4.63;;;34.80;40.40;;;;;;6251446;23;20050;-75
2021/08/25 12:02:55;;;;;;;7.82;4.72;;;34.70;41.60;;;;;;6251556;23;20004;-76
2021/08/25 12:05:29;;;;;;;8.25;4.75;;;34.70;42.60;;;;;;6251169;23;20312;-80
2021/08/25 12:08:04;;;;;;;14.52;5.00;;;34.70;42.80;;;;;;6251157;23;20055;-76
2021/08/25 12:10:32;;;;;;;10.00;4.97;;;34.70;42.50;;;;;;6251211;23;20435;-76
2021/08/25 12:12:57;;;;;;;9.40;5.57;;;34.70;43.60;;;;;;6251189;23;20081;-76
2021/08/25 12:15:50;;;;;;;8.45;4.90;;;34.70;41.30;;;;;;6251086;23;19996;-76
2021/08/25 12:18:19;;;;;;;9.15;5.00;;;34.60;42.30;;;;;;6250943;23;20513;-76
2021/08/25 12:20:48;;;;;;;9.70;5.40;;;34.60;42.50;;;;;;6250197;23;20007;-76
2021/08/25 12:23:16;;;;;;;10.30;5.75;;;34.50;42.70;;;;;;6223308;23;20512;-76
2021/08/25 12:25:54;;;;;;;9.27;4.68;;;34.50;42.70;;;;;;6251008;23;20004;-75
2021/08/25 12:28:37;;;;;;;9.18;5.15;;;34.40;40.00;;;;;;6250690;23;20335;-76
2021/08/25 12:31:24;;;;;;;8.98;5.03;;;34.30;39.60;;;;;;6250519;23;20011;-75
2021/08/25 12:34:14;;;;;;;8.75;4.82;;;34.00;38.70;;;;;;6251029;23;20000;-75
2021/08/25 12:36:51;;;;;;;10.35;5.63;;;33.70;40.80;;;;;;6250933;23;20079;-75
2021/08/25 12:39:21;;;;;;;12.07;5.20;;;33.50;38.80;;;;;;6250766;23;20000;-75
2021/08/25 12:41:48;;;;;;;10.57;5.35;;;33.30;40.30;;;;;;6251245;23;20023;-75
2021/08/25 12:44:16;;;;;;;8.98;5.28;;;33.10;40.70;;;;;;6251005;23;20000;-75
2021/08/25 12:47:10;;;;;;;12.32;5.35;;;32.90;40.20;;;;;;6250990;23;20004;-75